Time;durP1;ratioP1;P1;durP2;ratioP2;P2;SDS_P1;SDS_P2;PMS_P1;PMS_P2;Temp;Humidity;BMP_temperature;BMP_pressure;BME280_temperature;BME280_humidity;BME280_pressure;Samples;Min_cycle;Max_cycle;Signal;HPM_P1;HPM_P2
2024/04/15 00:00:15;;;;;;;17.35;3.10;;;12.50;99.10;;;;;;5470786;26;20009;-71
2024/04/15 00:02:42;;;;;;;14.52;2.80;;;12.40;99.40;;;;;;5399880;26;20005;-72
2024/04/15 00:05:08;;;;;;;11.45;2.75;;;12.40;99.90;;;;;;5452301;26;20405;-71
2024/04/15 00:07:34;;;;;;;11.32;3.08;;;12.50;99.90;;;;;;5477346;26;20002;-72
2024/04/15 00:09:59;;;;;;;13.77;3.20;;;12.50;99.90;;;;;;5397962;26;20320;-72
2024/04/15 00:12:25;;;;;;;20.02;3.42;;;12.40;99.90;;;;;;5462660;26;20074;-73
2024/04/15 00:14:51;;;;;;;18.65;3.58;;;12.50;99.90;;;;;;5448158;26;20011;-72
2024/04/15 00:17:16;;;;;;;13.98;2.85;;;12.40;99.90;;;;;;5428265;26;19998;-71
2024/04/15 00:19:42;;;;;;;13.93;2.97;;;12.30;99.90;;;;;;5441368;26;19998;-72
2024/04/15 00:22:08;;;;;;;15.00;2.50;;;12.10;99.90;;;;;;5435444;26;19999;-72
2024/04/15 00:24:34;;;;;;;13.82;3.97;;;12.10;99.90;;;;;;5448666;26;20062;-72
2024/04/15 00:26:59;;;;;;;15.60;2.33;;;11.90;99.90;;;;;;5387727;26;20014;-71
2024/04/15 00:29:25;;;;;;;13.85;2.92;;;11.80;99.90;;;;;;5407644;26;19999;-73
2024/04/15 00:31:51;;;;;;;21.02;2.75;;;11.80;99.90;;;;;;5440462;26;20011;-73
2024/04/15 00:34:16;;;;;;;13.45;3.03;;;11.80;99.90;;;;;;5480610;26;19998;-72
2024/04/15 00:36:44;;;;;;;17.60;3.38;;;11.70;99.90;;;;;;5435866;26;20003;-72
2024/04/15 00:39:10;;;;;;;14.40;3.28;;;11.60;99.90;;;;;;5399335;26;20007;-71
2024/04/15 00:41:35;;;;;;;11.50;2.25;;;11.60;99.90;;;;;;5474657;26;20014;-72
2024/04/15 00:44:01;;;;;;;13.27;2.90;;;11.70;99.90;;;;;;5424801;26;19994;-71
2024/04/15 00:46:27;;;;;;;18.73;3.25;;;11.70;99.90;;;;;;5429317;26;19999;-72
2024/04/15 00:48:53;;;;;;;14.50;3.38;;;11.90;99.90;;;;;;5421212;26;19995;-71
2024/04/15 00:51:21;;;;;;;10.65;2.83;;;11.90;99.90;;;;;;5451993;26;19994;-72
2024/04/15 00:53:49;;;;;;;15.93;3.35;;;11.70;99.90;;;;;;5474568;26;20005;-71
2024/04/15 00:56:16;;;;;;;12.90;2.47;;;11.70;99.90;;;;;;5445053;26;20046;-71
2024/04/15 00:58:43;;;;;;;14.55;2.25;;;11.70;99.90;;;;;;5429198;26;20056;-72
2024/04/15 01:01:10;;;;;;;11.20;2.38;;;11.40;99.90;;;;;;5424102;26;20017;-73
2024/04/15 01:03:36;;;;;;;11.45;2.42;;;11.30;99.90;;;;;;5470591;26;20432;-71
2024/04/15 01:06:02;;;;;;;13.63;2.78;;;11.20;99.90;;;;;;5467260;26;20064;-72
2024/04/15 01:08:27;;;;;;;17.90;2.65;;;11.20;99.90;;;;;;5447563;26;20010;-72
2024/04/15 01:10:53;;;;;;;18.45;3.13;;;11.20;99.90;;;;;;5446656;26;20067;-72
2024/04/15 01:13:19;;;;;;;17.75;3.25;;;11.10;99.90;;;;;;5478214;26;20010;-71
2024/04/15 01:15:45;;;;;;;13.85;3.00;;;11.10;99.90;;;;;;5440123;26;20015;-73
2024/04/15 01:18:10;;;;;;;14.88;2.55;;;11.10;99.90;;;;;;5424193;26;20383;-71
2024/04/15 01:20:36;;;;;;;10.60;2.42;;;10.90;99.90;;;;;;5446814;26;19999;-73
2024/04/15 01:23:10;;;;;;;12.93;3.17;;;10.90;99.90;;;;;;5417113;26;20001;-70
2024/04/15 01:25:35;;;;;;;16.48;3.20;;;10.90;99.90;;;;;;5438155;26;20005;-72
2024/04/15 01:28:02;;;;;;;12.10;2.95;;;10.80;99.90;;;;;;5434157;26;19998;-72
2024/04/15 01:30:28;;;;;;;12.02;2.17;;;10.80;99.90;;;;;;5399346;26;20437;-72
2024/04/15 01:32:54;;;;;;;15.68;2.92;;;10.90;99.90;;;;;;5400063;26;20051;-71
2024/04/15 01:35:20;;;;;;;13.25;2.35;;;10.90;99.90;;;;;;5438638;26;20339;-71
2024/04/15 01:37:48;;;;;;;11.75;1.92;;;11.00;99.90;;;;;;5466951;26;20003;-71
2024/04/15 01:40:14;;;;;;;14.38;2.58;;;10.90;99.90;;;;;;5403659;26;20503;-72
2024/04/15 01:42:40;;;;;;;15.35;2.95;;;10.90;99.90;;;;;;5452757;26;20006;-71
2024/04/15 01:45:06;;;;;;;11.57;2.42;;;10.80;99.90;;;;;;5469299;26;19999;-71
2024/04/15 01:47:31;;;;;;;11.02;1.90;;;10.80;99.90;;;;;;5426157;26;20134;-74
2024/04/15 01:49:57;;;;;;;10.13;2.28;;;10.80;99.90;;;;;;5423104;26;19998;-73
2024/04/15 01:52:22;;;;;;;11.30;2.13;;;10.80;99.90;;;;;;5452007;26;20003;-73
2024/04/15 01:54:48;;;;;;;12.82;2.08;;;10.80;99.90;;;;;;5484675;26;20009;-71
2024/04/15 01:57:14;;;;;;;19.15;2.33;;;10.90;99.90;;;;;;5441941;26;20005;-71
2024/04/15 01:59:39;;;;;;;11.80;1.90;;;10.80;99.90;;;;;;5417870;26;20003;-72
2024/04/15 02:02:05;;;;;;;13.65;1.83;;;10.70;99.90;;;;;;5431404;26;20048;-73
2024/04/15 02:04:31;;;;;;;9.70;1.95;;;10.60;99.90;;;;;;5414153;26;19998;-72
2024/04/15 02:06:57;;;;;;;13.45;2.30;;;10.50;99.90;;;;;;5442280;26;20010;-73
2024/04/15 02:09:22;;;;;;;7.40;1.80;;;10.40;99.90;;;;;;5433414;26;20079;-72
2024/04/15 02:11:48;;;;;;;6.90;1.73;;;10.30;99.90;;;;;;5403229;26;20009;-71
2024/04/15 02:14:13;;;;;;;11.68;2.00;;;10.20;99.90;;;;;;5433175;26;20009;-73
2024/04/15 02:16:39;;;;;;;11.52;2.42;;;10.20;99.90;;;;;;5459131;26;19998;-74
2024/04/15 02:19:05;;;;;;;11.93;1.90;;;10.10;99.90;;;;;;5459417;26;20438;-73
2024/04/15 02:21:30;;;;;;;9.85;2.30;;;10.20;99.90;;;;;;5422331;26;19999;-73
2024/04/15 02:23:56;;;;;;;9.25;1.98;;;10.10;99.90;;;;;;5436888;26;20354;-72
2024/04/15 02:26:22;;;;;;;15.32;2.28;;;10.10;99.90;;;;;;5425132;26;20018;-72
2024/04/15 02:28:47;;;;;;;7.55;1.77;;;10.00;99.90;;;;;;5466844;26;20021;-71
2024/04/15 02:31:13;;;;;;;10.00;1.95;;;10.00;99.90;;;;;;5458276;26;19999;-71
2024/04/15 02:33:39;;;;;;;13.20;2.20;;;9.90;99.90;;;;;;5454822;26;19994;-73
2024/04/15 02:36:04;;;;;;;9.40;2.15;;;9.80;99.90;;;;;;5435393;26;20068;-74
2024/04/15 02:38:30;;;;;;;9.27;1.58;;;9.70;99.90;;;;;;5454206;26;20431;-73
2024/04/15 02:40:56;;;;;;;18.85;3.00;;;9.70;99.90;;;;;;5490442;26;20030;-71
2024/04/15 02:43:21;;;;;;;18.35;2.88;;;9.70;99.90;;;;;;5415506;26;20024;-74
2024/04/15 02:45:47;;;;;;;6.82;1.92;;;9.80;99.90;;;;;;5412835;26;20068;-72
2024/04/15 02:48:15;;;;;;;7.13;2.20;;;9.70;99.90;;;;;;5461693;26;19999;-73
2024/04/15 02:50:41;;;;;;;8.82;1.85;;;9.70;99.90;;;;;;5448807;26;20002;-73
2024/04/15 02:53:07;;;;;;;11.13;2.45;;;9.70;99.90;;;;;;5455407;26;20009;-71
2024/04/15 02:55:32;;;;;;;15.85;2.30;;;9.70;99.90;;;;;;5404855;26;20006;-72
2024/04/15 02:57:58;;;;;;;10.35;2.33;;;9.60;99.90;;;;;;5395976;26;20014;-75
2024/04/15 03:00:24;;;;;;;15.48;2.70;;;9.50;99.90;;;;;;5432528;26;20005;-72
2024/04/15 03:02:51;;;;;;;15.35;3.28;;;9.50;99.90;;;;;;5481819;26;20024;-74
2024/04/15 03:05:16;;;;;;;14.02;2.63;;;9.50;99.90;;;;;;5457041;26;20009;-73
2024/04/15 03:07:42;;;;;;;14.63;2.25;;;9.40;99.90;;;;;;5492803;26;20006;-73
2024/04/15 03:10:08;;;;;;;13.05;2.88;;;9.40;99.90;;;;;;5425137;26;20006;-73
2024/04/15 03:12:33;;;;;;;16.98;3.17;;;9.40;99.90;;;;;;5441992;26;19994;-71
2024/04/15 03:14:59;;;;;;;11.48;2.22;;;9.40;99.90;;;;;;5466622;26;19998;-71
2024/04/15 03:17:25;;;;;;;15.63;3.13;;;9.40;99.90;;;;;;5417895;26;20462;-71
2024/04/15 03:19:53;;;;;;;20.83;2.67;;;9.40;99.90;;;;;;5468073;26;19999;-71
2024/04/15 03:22:19;;;;;;;18.00;3.13;;;9.30;99.90;;;;;;5399644;26;20005;-71
2024/04/15 03:24:48;;;;;;;11.85;2.15;;;9.30;99.90;;;;;;5449483;26;20446;-74
2024/04/15 03:27:14;;;;;;;12.85;3.15;;;9.30;99.90;;;;;;5445112;26;20047;-70
2024/04/15 03:29:40;;;;;;;13.93;3.53;;;9.30;99.90;;;;;;5455342;26;20401;-71
2024/04/15 03:32:06;;;;;;;14.60;2.60;;;9.40;99.90;;;;;;5401613;26;20472;-71
2024/04/15 03:34:31;;;;;;;15.88;3.03;;;9.50;99.90;;;;;;5462480;26;20427;-73
2024/04/15 03:36:57;;;;;;;17.35;3.25;;;9.40;99.90;;;;;;5470093;26;19995;-72
2024/04/15 03:39:23;;;;;;;22.55;3.58;;;9.40;99.90;;;;;;5447523;26;20035;-71
2024/04/15 03:41:48;;;;;;;21.65;3.65;;;9.40;99.90;;;;;;5434557;26;20006;-71
2024/04/15 03:44:14;;;;;;;21.42;3.45;;;9.30;99.90;;;;;;5470434;26;20052;-71
2024/04/15 03:46:40;;;;;;;15.35;3.17;;;9.30;99.90;;;;;;5381706;26;20002;-72
2024/04/15 03:49:05;;;;;;;16.35;3.42;;;9.20;99.90;;;;;;5409487;26;20009;-73
2024/04/15 03:51:31;;;;;;;12.15;2.90;;;9.20;99.90;;;;;;5420768;26;20006;-73
2024/04/15 03:53:56;;;;;;;18.90;3.25;;;9.20;99.90;;;;;;5451660;26;20457;-72
2024/04/15 03:56:22;;;;;;;28.85;4.43;;;9.20;99.90;;;;;;5451129;26;20066;-71
2024/04/15 03:58:48;;;;;;;13.52;3.03;;;9.10;99.90;;;;;;5458217;26;20757;-71
2024/04/15 04:01:13;;;;;;;13.45;3.00;;;9.10;99.90;;;;;;5425994;26;19995;-73
2024/04/15 04:03:40;;;;;;;16.55;3.88;;;9.20;99.90;;;;;;5390529;26;20007;-71
2024/04/15 04:06:06;;;;;;;18.90;3.63;;;9.20;99.90;;;;;;5433363;26;20500;-71
2024/04/15 04:08:32;;;;;;;23.70;3.97;;;9.10;99.90;;;;;;5471832;26;20001;-71
2024/04/15 04:11:04;;;;;;;22.75;3.95;;;9.10;99.90;;;;;;5417388;26;20002;-72
2024/04/15 04:13:35;;;;;;;23.92;4.15;;;9.20;99.90;;;;;;5479779;26;20101;-72
2024/04/15 04:16:01;;;;;;;17.70;3.20;;;9.10;99.90;;;;;;5458273;26;20007;-73
2024/04/15 04:18:27;;;;;;;21.98;4.53;;;9.20;99.90;;;;;;5427123;26;20555;-73
2024/04/15 04:20:53;;;;;;;22.52;3.92;;;9.10;99.90;;;;;;5398119;26;20016;-71
2024/04/15 04:23:18;;;;;;;17.92;3.45;;;9.10;99.90;;;;;;5434534;26;20139;-72
2024/04/15 04:25:46;;;;;;;12.13;3.20;;;9.10;99.90;;;;;;5448788;26;20003;-73
2024/04/15 04:28:11;;;;;;;18.23;3.53;;;9.20;99.90;;;;;;5398766;26;20009;-71
2024/04/15 04:30:37;;;;;;;17.67;4.22;;;9.10;99.90;;;;;;5392327;26;20428;-73
2024/04/15 04:33:04;;;;;;;38.13;4.90;;;9.10;99.90;;;;;;5490704;26;19994;-73
2024/04/15 04:35:39;;;;;;;20.13;3.42;;;9.10;99.90;;;;;;5461284;26;19998;-73
2024/04/15 04:38:06;;;;;;;24.15;3.83;;;9.20;99.90;;;;;;5479292;26;20006;-74
2024/04/15 04:40:31;;;;;;;23.02;4.57;;;9.10;99.90;;;;;;5402740;26;19998;-74
2024/04/15 04:42:57;;;;;;;32.22;5.22;;;9.10;99.90;;;;;;5429683;26;20009;-71
2024/04/15 04:45:25;;;;;;;16.45;3.40;;;9.10;99.90;;;;;;5440856;26;20006;-71
2024/04/15 04:47:51;;;;;;;30.20;5.72;;;9.10;99.90;;;;;;5440970;26;19994;-71
2024/04/15 04:50:16;;;;;;;20.27;4.40;;;9.10;99.90;;;;;;5440578;26;20013;-71
2024/04/15 04:52:42;;;;;;;24.77;4.57;;;9.10;99.90;;;;;;5488763;26;19998;-71
2024/04/15 04:55:08;;;;;;;36.67;5.43;;;9.00;99.90;;;;;;5432666;26;20009;-71
2024/04/15 04:57:34;;;;;;;29.58;4.05;;;8.90;99.90;;;;;;5458797;26;19998;-73
2024/04/15 04:59:59;;;;;;;21.23;4.18;;;9.00;99.90;;;;;;5468015;26;20379;-71
2024/04/15 05:02:25;;;;;;;23.30;4.30;;;8.90;99.90;;;;;;5456334;26;20048;-71
2024/04/15 05:04:51;;;;;;;31.65;5.00;;;8.80;99.90;;;;;;5451336;26;20094;-71
2024/04/15 05:07:17;;;;;;;23.35;5.57;;;8.80;99.90;;;;;;5460174;26;20341;-73
2024/04/15 05:09:43;;;;;;;28.63;4.80;;;8.70;99.90;;;;;;5406120;26;19994;-72
2024/04/15 05:12:08;;;;;;;23.80;4.35;;;8.70;99.90;;;;;;5438110;26;19998;-73
2024/04/15 05:14:34;;;;;;;27.15;4.95;;;8.80;99.90;;;;;;5457794;26;20035;-73
2024/04/15 05:17:00;;;;;;;26.83;4.10;;;8.80;99.90;;;;;;5444450;26;20020;-72
2024/04/15 05:19:26;;;;;;;23.98;5.80;;;8.70;99.90;;;;;;5487215;26;19998;-71
2024/04/15 05:21:51;;;;;;;26.48;4.03;;;8.70;99.90;;;;;;5443323;26;20047;-71
2024/04/15 05:24:17;;;;;;;27.23;5.05;;;8.70;99.90;;;;;;5445003;26;19999;-72
2024/04/15 05:26:43;;;;;;;24.85;5.20;;;8.80;99.90;;;;;;5451953;26;19995;-73
2024/04/15 05:29:09;;;;;;;27.70;4.95;;;8.80;99.90;;;;;;5477741;26;20040;-72
2024/04/15 05:31:35;;;;;;;34.58;5.88;;;8.70;99.90;;;;;;5436358;26;20459;-72
2024/04/15 05:34:02;;;;;;;34.13;4.90;;;8.80;99.90;;;;;;5480091;26;20017;-74
2024/04/15 05:36:28;;;;;;;23.85;5.80;;;9.00;99.90;;;;;;5444935;26;20018;-72
2024/04/15 05:38:53;;;;;;;31.33;5.43;;;9.00;99.90;;;;;;5437171;26;20079;-72
2024/04/15 05:41:19;;;;;;;31.58;5.53;;;9.00;99.90;;;;;;5444201;26;20010;-72
2024/04/15 05:43:45;;;;;;;24.60;4.60;;;9.10;99.90;;;;;;5427649;26;20002;-69
2024/04/15 05:46:10;;;;;;;32.05;4.90;;;9.20;99.90;;;;;;5422927;26;20010;-72
2024/04/15 05:48:36;;;;;;;23.67;5.35;;;9.30;99.90;;;;;;5432978;26;20001;-72
2024/04/15 05:51:02;;;;;;;32.00;5.32;;;9.20;99.90;;;;;;5411811;26;20015;-70
2024/04/15 05:53:27;;;;;;;31.23;4.57;;;9.30;99.90;;;;;;5454291;26;19994;-69
2024/04/15 05:55:53;;;;;;;26.13;4.35;;;9.30;99.90;;;;;;5403792;26;20665;-70
2024/04/15 05:58:19;;;;;;;23.08;4.80;;;9.40;99.90;;;;;;5411904;26;20009;-71
2024/04/15 06:00:45;;;;;;;29.67;5.07;;;9.50;99.90;;;;;;5408469;26;20005;-69
2024/04/15 06:03:11;;;;;;;28.58;5.82;;;9.60;99.90;;;;;;5427713;26;20046;-72
2024/04/15 06:05:36;;;;;;;41.03;5.55;;;9.50;99.90;;;;;;5457291;26;20138;-71
2024/04/15 06:08:02;;;;;;;31.55;5.57;;;9.40;99.90;;;;;;5415516;26;19998;-71
2024/04/15 06:10:28;;;;;;;35.42;4.90;;;9.40;99.90;;;;;;5477506;26;20034;-70
2024/04/15 06:12:53;;;;;;;21.05;4.72;;;9.50;99.90;;;;;;5417716;26;19998;-72
2024/04/15 06:15:19;;;;;;;26.85;5.57;;;9.60;99.90;;;;;;5415474;26;20009;-69
2024/04/15 06:17:46;;;;;;;31.08;5.93;;;9.60;99.90;;;;;;5425197;26;20040;-69
2024/04/15 06:20:11;;;;;;;34.88;7.22;;;9.70;99.90;;;;;;5402357;26;20002;-69
2024/04/15 06:22:37;;;;;;;41.45;6.70;;;9.80;99.90;;;;;;5374495;26;20013;-70
2024/04/15 06:25:04;;;;;;;29.42;5.93;;;9.70;99.90;;;;;;5439046;26;20354;-71
2024/04/15 06:27:30;;;;;;;22.08;6.10;;;9.60;99.90;;;;;;5458747;26;20022;-70
2024/04/15 06:29:55;;;;;;;31.33;6.40;;;9.50;99.90;;;;;;5473421;26;20439;-70
2024/04/15 06:32:21;;;;;;;17.83;5.43;;;9.50;99.90;;;;;;5410283;26;20010;-69
2024/04/15 06:34:47;;;;;;;38.03;7.75;;;9.60;99.90;;;;;;5451738;26;20002;-70
2024/04/15 06:37:12;;;;;;;25.65;5.82;;;9.70;99.90;;;;;;5449118;26;20007;-68
2024/04/15 06:39:38;;;;;;;44.20;6.93;;;9.70;99.90;;;;;;5442873;26;20014;-68
2024/04/15 06:42:04;;;;;;;35.03;5.18;;;9.90;99.90;;;;;;5384205;26;20015;-68
2024/04/15 06:44:31;;;;;;;27.20;5.00;;;9.90;99.90;;;;;;5421242;26;19994;-70
2024/04/15 06:46:57;;;;;;;31.33;5.35;;;9.90;99.90;;;;;;5384247;26;19994;-71
2024/04/15 06:49:22;;;;;;;32.15;5.07;;;9.90;99.90;;;;;;5385963;26;20018;-67
2024/04/15 06:51:48;;;;;;;21.77;4.80;;;9.90;99.90;;;;;;5394806;26;20381;-69
2024/04/15 06:54:14;;;;;;;26.58;5.63;;;9.80;99.90;;;;;;5402129;26;19999;-69
2024/04/15 06:56:39;;;;;;;24.60;5.03;;;9.80;99.90;;;;;;5345079;26;20127;-69
2024/04/15 06:59:05;;;;;;;24.92;5.18;;;9.90;99.90;;;;;;5418587;26;19999;-72
2024/04/15 07:01:30;;;;;;;21.35;3.90;;;9.90;99.90;;;;;;5447911;26;19999;-69
2024/04/15 07:03:56;;;;;;;27.85;4.97;;;9.80;99.90;;;;;;5389949;26;20006;-70
2024/04/15 07:06:24;;;;;;;31.02;4.95;;;9.90;99.90;;;;;;5344255;26;20003;-70
2024/04/15 07:08:49;;;;;;;29.70;6.20;;;9.90;99.90;;;;;;5398529;26;20057;-74
2024/04/15 07:11:15;;;;;;;28.35;4.57;;;10.10;99.90;;;;;;5371821;26;20015;-71
2024/04/15 07:13:41;;;;;;;23.10;4.05;;;10.20;99.90;;;;;;5356992;26;20324;-70
2024/04/15 07:16:08;;;;;;;17.40;4.63;;;10.20;99.90;;;;;;5437497;26;20079;-72
2024/04/15 07:18:34;;;;;;;24.88;4.40;;;10.30;99.90;;;;;;5417495;26;20010;-71
2024/04/15 07:20:59;;;;;;;18.85;3.95;;;10.50;99.90;;;;;;5365731;26;19999;-75
2024/04/15 07:23:25;;;;;;;25.95;4.63;;;10.70;99.90;;;;;;5382534;26;20011;-71
2024/04/15 07:26:00;;;;;;;15.48;4.38;;;10.80;99.90;;;;;;5426262;26;19998;-71
2024/04/15 07:28:27;;;;;;;27.63;4.28;;;10.80;99.90;;;;;;5421180;26;20007;-72
2024/04/15 07:31:00;;;;;;;16.35;3.58;;;11.00;99.90;;;;;;5447834;26;20007;-71
2024/04/15 07:33:25;;;;;;;;;;;11.20;99.90;;;;;;5383894;26;20007;-71
2024/04/15 07:35:55;;;;;;;21.75;4.18;;;11.30;99.90;;;;;;5420673;26;19925;-71
2024/04/15 07:38:21;;;;;;;30.63;4.07;;;11.30;99.90;;;;;;5420908;26;20035;-70
2024/04/15 07:40:47;;;;;;;24.38;4.35;;;11.40;99.90;;;;;;5398765;26;20010;-70
2024/04/15 07:43:13;;;;;;;19.30;4.18;;;11.40;99.90;;;;;;5448545;26;20003;-72
2024/04/15 07:45:39;;;;;;;20.05;3.67;;;11.40;99.90;;;;;;5387385;26;20007;-70
2024/04/15 07:48:06;;;;;;;17.27;3.42;;;11.40;99.90;;;;;;5419102;26;20013;-70
2024/04/15 07:50:31;;;;;;;19.40;3.90;;;11.40;99.90;;;;;;5362405;26;20014;-71
2024/04/15 07:52:57;;;;;;;22.95;3.85;;;11.30;99.90;;;;;;5410324;26;19999;-72
2024/04/15 07:55:22;;;;;;;27.15;3.60;;;11.30;99.90;;;;;;5440047;26;20007;-70
2024/04/15 07:57:48;;;;;;;18.95;3.45;;;11.30;99.90;;;;;;5396351;26;20011;-71
2024/04/15 08:00:14;;;;;;;23.48;3.20;;;11.30;99.90;;;;;;5385951;26;19999;-70
2024/04/15 08:02:40;;;;;;;25.38;3.25;;;11.30;99.90;;;;;;5417945;26;20026;-71
2024/04/15 08:05:06;;;;;;;19.88;3.20;;;11.50;99.90;;;;;;5429431;26;19995;-71
2024/04/15 08:07:31;;;;;;;18.83;3.17;;;11.70;99.90;;;;;;5357629;26;20350;-70
2024/04/15 08:09:58;;;;;;;18.38;2.90;;;11.70;99.90;;;;;;5334659;26;20032;-71
2024/04/15 08:12:24;;;;;;;17.25;2.75;;;11.80;99.90;;;;;;5380217;26;20015;-71
2024/04/15 08:14:49;;;;;;;15.98;3.33;;;11.90;99.90;;;;;;5390750;26;20011;-70
2024/04/15 08:17:15;;;;;;;20.00;2.83;;;12.00;99.90;;;;;;5388143;26;20022;-72
2024/04/15 08:19:41;;;;;;;16.20;2.50;;;12.10;99.90;;;;;;5419962;26;20447;-71
2024/04/15 08:22:06;;;;;;;16.17;3.03;;;12.20;99.90;;;;;;5428479;26;20000;-72
2024/04/15 08:24:32;;;;;;;29.98;3.80;;;12.30;99.90;;;;;;5439381;26;20010;-70
2024/04/15 08:26:57;;;;;;;17.23;2.35;;;12.30;99.90;;;;;;5384453;26;20437;-72
2024/04/15 08:29:23;;;;;;;21.67;3.35;;;12.30;99.90;;;;;;5391202;26;20049;-70
2024/04/15 08:31:49;;;;;;;22.50;3.38;;;12.20;99.90;;;;;;5395571;26;19995;-71
2024/04/15 08:34:14;;;;;;;17.25;3.38;;;12.10;99.90;;;;;;5378073;26;20077;-70
2024/04/15 08:36:40;;;;;;;20.00;3.42;;;12.00;99.90;;;;;;5406727;26;20003;-72
2024/04/15 08:39:06;;;;;;;16.48;2.17;;;12.00;99.90;;;;;;5424869;26;20404;-70
2024/04/15 08:41:42;;;;;;;23.08;3.35;;;12.00;99.90;;;;;;5425327;26;20081;-71
2024/04/15 08:44:10;;;;;;;20.38;3.33;;;12.00;99.90;;;;;;5450888;26;20375;-70
2024/04/15 08:46:44;;;;;;;17.20;3.10;;;11.90;99.90;;;;;;5475151;26;20339;-72
2024/04/15 08:49:10;;;;;;;19.73;3.25;;;12.00;99.90;;;;;;5454337;26;20027;-71
2024/04/15 08:51:36;;;;;;;22.80;4.05;;;11.90;99.90;;;;;;5424116;26;20002;-70
2024/04/15 08:54:01;;;;;;;21.00;3.15;;;11.90;99.90;;;;;;5453398;26;20006;-70
2024/04/15 08:56:30;;;;;;;15.60;3.22;;;12.10;99.90;;;;;;5462677;26;20453;-71
2024/04/15 08:58:56;;;;;;;20.58;3.35;;;12.50;99.90;;;;;;5437515;26;20331;-73
2024/04/15 09:01:23;;;;;;;23.73;3.50;;;12.90;99.90;;;;;;5442800;26;20431;-70
2024/04/15 09:03:49;;;;;;;15.77;2.50;;;13.40;99.90;;;;;;5434816;26;20376;-70
2024/04/15 09:06:15;;;;;;;18.98;2.90;;;13.40;99.90;;;;;;5423824;26;20013;-69
2024/04/15 09:08:43;;;;;;;18.42;3.22;;;13.50;99.90;;;;;;5419338;26;20009;-71
2024/04/15 09:11:09;;;;;;;17.98;2.75;;;13.30;99.90;;;;;;5471323;26;20009;-71
2024/04/15 09:13:35;;;;;;;9.90;2.40;;;13.20;99.90;;;;;;5436511;26;20025;-73
2024/04/15 09:16:00;;;;;;;17.50;2.88;;;13.30;99.90;;;;;;5389532;26;20513;-71
2024/04/15 09:18:27;;;;;;;18.83;3.67;;;13.30;99.90;;;;;;5488742;26;19998;-71
2024/04/15 09:20:53;;;;;;;24.52;3.38;;;13.10;99.90;;;;;;5459393;26;20037;-70
2024/04/15 09:23:19;;;;;;;18.15;2.80;;;13.40;99.90;;;;;;5429426;26;19994;-70
2024/04/15 09:25:45;;;;;;;19.77;3.30;;;13.40;99.90;;;;;;5451836;26;19995;-70
2024/04/15 09:28:11;;;;;;;26.48;3.53;;;13.70;99.90;;;;;;5486257;26;20320;-71
2024/04/15 09:30:36;;;;;;;13.75;2.65;;;14.00;99.90;;;;;;5428654;26;20013;-69
2024/04/15 09:33:03;;;;;;;15.65;2.60;;;13.70;99.90;;;;;;5428555;26;19999;-70
2024/04/15 09:35:29;;;;;;;15.57;2.85;;;13.60;99.90;;;;;;5421848;26;20117;-67
2024/04/15 09:37:55;;;;;;;20.13;2.90;;;13.50;99.90;;;;;;5491154;26;19998;-72
2024/04/15 09:40:25;;;;;;;15.80;3.28;;;13.50;99.90;;;;;;5435028;26;19994;-69
2024/04/15 09:42:56;;;;;;;21.15;3.20;;;13.70;99.90;;;;;;5438888;26;20030;-70
2024/04/15 09:45:22;;;;;;;18.15;2.80;;;13.80;99.90;;;;;;5484721;26;20009;-71
2024/04/15 09:47:50;;;;;;;24.17;3.17;;;14.00;99.90;;;;;;5428666;26;19998;-70
2024/04/15 09:50:18;;;;;;;9.40;2.15;;;14.30;99.90;;;;;;5456628;26;20435;-72
2024/04/15 09:52:45;;;;;;;18.70;2.88;;;13.90;99.90;;;;;;5415785;26;20002;-70
2024/04/15 09:55:17;;;;;;;14.55;2.83;;;14.00;99.90;;;;;;5452155;26;19998;-71
2024/04/15 09:57:44;;;;;;;20.30;3.10;;;13.90;99.90;;;;;;5459438;26;20452;-70
2024/04/15 10:00:15;;;;;;;17.73;2.60;;;13.80;99.90;;;;;;5423052;26;19995;-69
2024/04/15 10:03:01;;;;;;;27.95;2.75;;;13.70;99.90;;;;;;5472184;26;20074;-70
2024/04/15 10:05:28;;;;;;;18.48;2.45;;;13.80;99.90;;;;;;5424167;26;20023;-71
2024/04/15 10:07:57;;;;;;;14.63;3.42;;;13.60;99.90;;;;;;5448102;26;19998;-73
2024/04/15 10:10:26;;;;;;;16.15;2.50;;;13.30;99.90;;;;;;5424999;26;20133;-70
2024/04/15 10:12:56;;;;;;;14.93;2.38;;;13.00;99.90;;;;;;5486170;26;20001;-70
2024/04/15 10:15:23;;;;;;;17.80;2.50;;;12.70;99.90;;;;;;5495522;26;20002;-70
2024/04/15 10:18:12;;;;;;;15.00;2.35;;;12.70;99.90;;;;;;5423615;26;20032;-71
2024/04/15 10:20:43;;;;;;;19.67;3.08;;;12.90;99.90;;;;;;5482120;26;20002;-71
2024/04/15 10:23:17;;;;;;;17.60;3.03;;;12.60;99.90;;;;;;5424626;26;20030;-70
2024/04/15 10:25:43;;;;;;;13.45;2.15;;;12.40;99.90;;;;;;5470388;26;20010;-72
2024/04/15 10:28:11;;;;;;;15.60;2.15;;;12.30;99.90;;;;;;5448963;26;20335;-70
2024/04/15 10:30:37;;;;;;;10.25;2.25;;;12.30;99.90;;;;;;5455001;26;20020;-71
2024/04/15 10:33:06;;;;;;;16.58;2.03;;;12.00;99.90;;;;;;5460096;26;20031;-71
2024/04/15 10:35:36;;;;;;;14.95;2.78;;;12.00;99.90;;;;;;5483437;26;20096;-71
2024/04/15 10:38:04;;;;;;;12.50;3.10;;;12.00;99.90;;;;;;5457835;26;20002;-71
2024/04/15 10:40:31;;;;;;;13.90;3.47;;;11.90;99.90;;;;;;5489415;26;20010;-71
2024/04/15 10:42:58;;;;;;;13.10;3.25;;;11.80;99.90;;;;;;5458444;26;20009;-72
2024/04/15 10:45:26;;;;;;;10.65;2.78;;;11.80;99.90;;;;;;5488799;26;19998;-71
2024/04/15 10:47:53;;;;;;;11.82;3.30;;;11.60;99.90;;;;;;5436791;26;20021;-71
2024/04/15 10:50:18;;;;;;;11.07;3.72;;;11.60;99.90;;;;;;5487494;26;20013;-72
2024/04/15 10:52:44;;;;;;;10.82;3.65;;;11.70;99.90;;;;;;5427883;26;20013;-70
2024/04/15 10:55:10;;;;;;;16.42;4.47;;;11.80;99.90;;;;;;5455519;26;19998;-70
2024/04/15 10:57:36;;;;;;;16.63;4.20;;;11.80;99.90;;;;;;5458183;26;20017;-71
2024/04/15 11:00:03;;;;;;;16.67;4.20;;;11.70;99.90;;;;;;5427060;26;20033;-70
2024/04/15 11:02:29;;;;;;;11.95;3.50;;;11.90;99.90;;;;;;5440695;26;20002;-71
2024/04/15 11:04:54;;;;;;;16.05;4.30;;;12.00;99.90;;;;;;5443925;26;20002;-70
2024/04/15 11:07:20;;;;;;;9.65;3.47;;;12.70;99.90;;;;;;5441756;26;20442;-70
2024/04/15 11:09:47;;;;;;;13.95;3.60;;;13.30;99.90;;;;;;5435031;26;19995;-72
2024/04/15 11:12:12;;;;;;;11.05;4.00;;;12.90;99.90;;;;;;5416094;26;20557;-72
2024/04/15 11:14:38;;;;;;;11.18;3.25;;;12.90;99.90;;;;;;5455339;26;20003;-72
2024/04/15 11:17:07;;;;;;;18.35;3.55;;;12.70;99.90;;;;;;5405088;26;20070;-71
2024/04/15 11:19:32;;;;;;;34.10;3.70;;;12.50;99.90;;;;;;5439561;26;20124;-70
2024/04/15 11:22:09;;;;;;;14.38;3.17;;;12.30;99.90;;;;;;5439155;26;20067;-71
2024/04/15 11:24:36;;;;;;;10.90;3.67;;;12.30;99.90;;;;;;5425896;26;20003;-73
2024/04/15 11:27:08;;;;;;;9.80;3.20;;;12.60;99.90;;;;;;5442104;26;20009;-71
2024/04/15 11:29:35;;;;;;;11.48;3.42;;;12.80;99.90;;;;;;5476573;26;20002;-72
2024/04/15 11:32:01;;;;;;;11.38;3.17;;;12.80;99.90;;;;;;5443482;26;20047;-73
2024/04/15 11:34:26;;;;;;;10.85;3.20;;;12.50;99.90;;;;;;5468052;26;20002;-70
2024/04/15 11:36:52;;;;;;;13.38;2.72;;;12.30;99.90;;;;;;5456792;26;19998;-71
2024/04/15 11:39:18;;;;;;;15.32;3.00;;;12.10;99.90;;;;;;5426017;26;20055;-70
2024/04/15 11:41:44;;;;;;;22.98;2.72;;;12.10;99.90;;;;;;5398464;26;20400;-70
2024/04/15 11:44:11;;;;;;;8.23;2.20;;;12.20;99.90;;;;;;5419289;26;20064;-69
2024/04/15 11:46:40;;;;;;;8.82;2.67;;;12.40;99.90;;;;;;5404162;26;20006;-70
2024/04/15 11:49:07;;;;;;;9.00;2.13;;;12.50;99.90;;;;;;5393860;26;20347;-70
2024/04/15 11:51:34;;;;;;;11.95;2.03;;;12.30;99.90;;;;;;5463994;26;20333;-68
2024/04/15 11:54:00;;;;;;;6.57;1.45;;;12.10;99.90;;;;;;5486112;26;20013;-74
2024/04/15 11:56:26;;;;;;;9.32;2.00;;;11.90;99.90;;;;;;5444877;26;20331;-72
2024/04/15 11:58:52;;;;;;;7.90;1.60;;;11.70;99.90;;;;;;5450177;26;20005;-70
2024/04/15 12:01:18;;;;;;;13.75;1.98;;;11.80;99.90;;;;;;5425738;26;19990;-69
2024/04/15 12:03:44;;;;;;;9.35;1.40;;;12.20;99.90;;;;;;5463419;26;20043;-67
2024/04/15 12:06:10;;;;;;;7.57;1.50;;;12.30;99.90;;;;;;5433345;26;19999;-67
2024/04/15 12:08:36;;;;;;;13.00;1.95;;;12.10;99.90;;;;;;5436877;26;19999;-69
2024/04/15 12:11:11;;;;;;;7.75;2.08;;;12.00;99.90;;;;;;5447666;26;20006;-70
2024/04/15 12:13:37;;;;;;;9.23;0.98;;;11.70;99.90;;;;;;5429873;26;20356;-69
2024/04/15 12:16:02;;;;;;;8.70;1.30;;;11.60;99.90;;;;;;5448228;26;20017;-69
2024/04/15 12:18:28;;;;;;;9.10;1.30;;;12.60;99.90;;;;;;5414474;26;20006;-69
2024/04/15 12:20:54;;;;;;;5.13;1.35;;;13.50;99.90;;;;;;5452026;26;20001;-69
2024/04/15 12:23:20;;;;;;;9.23;1.27;;;13.00;99.90;;;;;;5442424;26;20002;-70
2024/04/15 12:25:45;;;;;;;10.80;1.63;;;12.70;99.90;;;;;;5442998;26;20014;-72
2024/04/15 12:28:12;;;;;;;9.90;1.60;;;12.60;99.90;;;;;;5463806;26;20002;-70
2024/04/15 12:30:37;;;;;;;7.68;1.85;;;12.50;99.90;;;;;;5415767;26;20441;-70
2024/04/15 12:33:03;;;;;;;12.32;1.35;;;12.50;99.90;;;;;;5455994;26;20013;-69
2024/04/15 12:35:30;;;;;;;14.27;2.00;;;12.10;99.90;;;;;;5451096;26;20013;-69